sensor_id;sensor_type;location;lat;lon;timestamp;P1;durP1;ratioP1;P2;durP2;ratioP2
69534;SDS011;56754;51.568;5.048;2023-01-01T00:01:28;10.13;;;4.20;;
69534;SDS011;56754;51.568;5.048;2023-01-01T00:03:55;9.48;;;3.55;;
69534;SDS011;56754;51.568;5.048;2023-01-01T00:06:21;8.45;;;3.25;;
69534;SDS011;56754;51.568;5.048;2023-01-01T00:08:47;8.63;;;3.20;;
69534;SDS011;56754;51.568;5.048;2023-01-01T00:11:13;7.20;;;2.70;;
69534;SDS011;56754;51.568;5.048;2023-01-01T00:13:39;9.27;;;3.58;;
69534;SDS011;56754;51.568;5.048;2023-01-01T00:18:30;8.50;;;3.38;;
69534;SDS011;56754;51.568;5.048;2023-01-01T00:23:50;8.77;;;3.05;;
69534;SDS011;56754;51.568;5.048;2023-01-01T00:26:16;8.30;;;2.50;;
69534;SDS011;56754;51.568;5.048;2023-01-01T00:28:42;8.33;;;2.80;;
69534;SDS011;56754;51.568;5.048;2023-01-01T00:31:09;11.48;;;3.15;;
69534;SDS011;56754;51.568;5.048;2023-01-01T00:33:38;9.65;;;3.17;;
69534;SDS011;56754;51.568;5.048;2023-01-01T00:36:07;7.65;;;2.60;;
69534;SDS011;56754;51.568;5.048;2023-01-01T00:38:34;8.67;;;2.60;;
69534;SDS011;56754;51.568;5.048;2023-01-01T00:41:00;7.13;;;2.85;;
69534;SDS011;56754;51.568;5.048;2023-01-01T00:43:25;9.50;;;3.07;;
69534;SDS011;56754;51.568;5.048;2023-01-01T00:45:50;10.00;;;2.93;;
69534;SDS011;56754;51.568;5.048;2023-01-01T00:48:16;6.70;;;2.30;;
69534;SDS011;56754;51.568;5.048;2023-01-01T00:50:41;5.97;;;2.60;;
69534;SDS011;56754;51.568;5.048;2023-01-01T00:53:06;9.03;;;2.93;;
69534;SDS011;56754;51.568;5.048;2023-01-01T00:55:32;6.97;;;2.43;;
69534;SDS011;56754;51.568;5.048;2023-01-01T00:57:57;6.60;;;2.00;;
69534;SDS011;56754;51.568;5.048;2023-01-01T01:00:22;6.50;;;1.90;;
69534;SDS011;56754;51.568;5.048;2023-01-01T01:02:48;8.83;;;2.40;;
69534;SDS011;56754;51.568;5.048;2023-01-01T01:05:13;6.80;;;2.50;;
69534;SDS011;56754;51.568;5.048;2023-01-01T01:07:38;8.00;;;2.23;;
69534;SDS011;56754;51.568;5.048;2023-01-01T01:10:04;7.47;;;2.13;;
69534;SDS011;56754;51.568;5.048;2023-01-01T01:12:32;8.27;;;2.33;;
69534;SDS011;56754;51.568;5.048;2023-01-01T01:14:58;8.13;;;2.50;;
69534;SDS011;56754;51.568;5.048;2023-01-01T01:17:23;6.63;;;2.10;;
69534;SDS011;56754;51.568;5.048;2023-01-01T01:19:49;6.17;;;1.83;;
69534;SDS011;56754;51.568;5.048;2023-01-01T01:22:14;8.30;;;2.30;;
69534;SDS011;56754;51.568;5.048;2023-01-01T01:24:39;6.50;;;1.90;;
69534;SDS011;56754;51.568;5.048;2023-01-01T01:27:04;6.30;;;1.80;;
69534;SDS011;56754;51.568;5.048;2023-01-01T01:29:30;7.70;;;1.63;;
69534;SDS011;56754;51.568;5.048;2023-01-01T01:31:55;6.30;;;1.53;;
69534;SDS011;56754;51.568;5.048;2023-01-01T01:34:20;6.38;;;2.40;;
69534;SDS011;56754;51.568;5.048;2023-01-01T01:36:45;6.53;;;2.40;;
69534;SDS011;56754;51.568;5.048;2023-01-01T01:39:11;6.57;;;1.73;;
69534;SDS011;56754;51.568;5.048;2023-01-01T01:41:36;6.73;;;2.20;;
69534;SDS011;56754;51.568;5.048;2023-01-01T01:44:03;9.50;;;2.40;;
69534;SDS011;56754;51.568;5.048;2023-01-01T01:46:50;7.03;;;2.28;;
69534;SDS011;56754;51.568;5.048;2023-01-01T01:49:16;8.90;;;2.10;;
69534;SDS011;56754;51.568;5.048;2023-01-01T01:51:48;7.57;;;1.70;;
69534;SDS011;56754;51.568;5.048;2023-01-01T01:54:14;6.20;;;1.80;;
69534;SDS011;56754;51.568;5.048;2023-01-01T01:56:46;7.88;;;1.60;;
69534;SDS011;56754;51.568;5.048;2023-01-01T01:59:35;6.05;;;1.70;;
69534;SDS011;56754;51.568;5.048;2023-01-01T02:02:09;6.18;;;1.60;;
69534;SDS011;56754;51.568;5.048;2023-01-01T02:04:51;8.20;;;2.10;;
69534;SDS011;56754;51.568;5.048;2023-01-01T02:07:18;7.07;;;1.63;;
69534;SDS011;56754;51.568;5.048;2023-01-01T02:09:45;7.80;;;1.75;;
69534;SDS011;56754;51.568;5.048;2023-01-01T02:12:11;7.50;;;1.53;;
69534;SDS011;56754;51.568;5.048;2023-01-01T02:14:36;8.23;;;1.80;;
69534;SDS011;56754;51.568;5.048;2023-01-01T02:17:06;8.50;;;1.50;;
69534;SDS011;56754;51.568;5.048;2023-01-01T02:22:28;5.25;;;1.60;;
69534;SDS011;56754;51.568;5.048;2023-01-01T02:31:32;7.30;;;1.73;;
69534;SDS011;56754;51.568;5.048;2023-01-01T02:34:03;5.80;;;1.27;;
69534;SDS011;56754;51.568;5.048;2023-01-01T02:36:32;6.32;;;1.80;;
69534;SDS011;56754;51.568;5.048;2023-01-01T02:39:00;5.67;;;1.60;;
69534;SDS011;56754;51.568;5.048;2023-01-01T02:41:30;4.55;;;1.40;;
69534;SDS011;56754;51.568;5.048;2023-01-01T02:44:07;5.68;;;1.33;;
69534;SDS011;56754;51.568;5.048;2023-01-01T02:46:32;6.23;;;1.77;;
69534;SDS011;56754;51.568;5.048;2023-01-01T02:48:59;4.57;;;1.63;;
69534;SDS011;56754;51.568;5.048;2023-01-01T02:51:40;6.28;;;1.30;;
69534;SDS011;56754;51.568;5.048;2023-01-01T02:56:47;6.50;;;1.87;;
69534;SDS011;56754;51.568;5.048;2023-01-01T03:08:11;3.85;;;1.25;;
69534;SDS011;56754;51.568;5.048;2023-01-01T03:16:11;4.07;;;1.30;;
69534;SDS011;56754;51.568;5.048;2023-01-01T03:18:50;5.50;;;1.20;;
69534;SDS011;56754;51.568;5.048;2023-01-01T03:21:22;6.43;;;1.60;;
69534;SDS011;56754;51.568;5.048;2023-01-01T03:23:48;4.57;;;1.30;;
69534;SDS011;56754;51.568;5.048;2023-01-01T03:26:15;5.13;;;1.40;;
69534;SDS011;56754;51.568;5.048;2023-01-01T03:28:48;3.83;;;1.00;;
69534;SDS011;56754;51.568;5.048;2023-01-01T03:31:20;6.88;;;1.13;;
69534;SDS011;56754;51.568;5.048;2023-01-01T03:33:50;4.88;;;1.20;;
69534;SDS011;56754;51.568;5.048;2023-01-01T03:36:21;4.28;;;1.38;;
69534;SDS011;56754;51.568;5.048;2023-01-01T03:38:53;5.63;;;1.20;;
69534;SDS011;56754;51.568;5.048;2023-01-01T03:41:25;8.27;;;1.00;;
69534;SDS011;56754;51.568;5.048;2023-01-01T03:46:38;6.07;;;1.30;;
69534;SDS011;56754;51.568;5.048;2023-01-01T03:49:05;6.57;;;1.05;;
69534;SDS011;56754;51.568;5.048;2023-01-01T04:00:05;5.07;;;1.23;;
69534;SDS011;56754;51.568;5.048;2023-01-01T04:02:41;6.40;;;1.20;;
69534;SDS011;56754;51.568;5.048;2023-01-01T04:05:40;5.45;;;0.80;;
69534;SDS011;56754;51.568;5.048;2023-01-01T04:08:07;4.47;;;1.33;;
69534;SDS011;56754;51.568;5.048;2023-01-01T04:10:36;7.57;;;1.42;;
69534;SDS011;56754;51.568;5.048;2023-01-01T04:13:05;4.78;;;1.35;;
69534;SDS011;56754;51.568;5.048;2023-01-01T04:15:31;6.70;;;1.10;;
69534;SDS011;56754;51.568;5.048;2023-01-01T04:17:57;3.45;;;1.02;;
69534;SDS011;56754;51.568;5.048;2023-01-01T04:20:23;4.90;;;1.13;;
69534;SDS011;56754;51.568;5.048;2023-01-01T04:22:49;6.03;;;1.40;;
69534;SDS011;56754;51.568;5.048;2023-01-01T04:25:15;6.03;;;1.10;;
69534;SDS011;56754;51.568;5.048;2023-01-01T04:27:40;5.18;;;0.95;;
69534;SDS011;56754;51.568;5.048;2023-01-01T04:30:07;7.50;;;1.47;;
69534;SDS011;56754;51.568;5.048;2023-01-01T04:32:35;4.03;;;1.00;;
69534;SDS011;56754;51.568;5.048;2023-01-01T04:35:00;6.47;;;1.50;;
69534;SDS011;56754;51.568;5.048;2023-01-01T04:37:26;5.90;;;1.13;;
69534;SDS011;56754;51.568;5.048;2023-01-01T04:39:51;5.40;;;0.97;;
69534;SDS011;56754;51.568;5.048;2023-01-01T04:42:16;4.70;;;0.90;;
69534;SDS011;56754;51.568;5.048;2023-01-01T04:44:42;8.52;;;1.10;;
69534;SDS011;56754;51.568;5.048;2023-01-01T04:47:08;9.40;;;1.30;;
69534;SDS011;56754;51.568;5.048;2023-01-01T04:49:33;6.38;;;1.23;;
69534;SDS011;56754;51.568;5.048;2023-01-01T04:51:58;6.37;;;1.20;;
69534;SDS011;56754;51.568;5.048;2023-01-01T04:54:24;7.10;;;1.53;;
69534;SDS011;56754;51.568;5.048;2023-01-01T04:56:49;6.93;;;1.20;;
69534;SDS011;56754;51.568;5.048;2023-01-01T04:59:14;6.03;;;1.20;;
69534;SDS011;56754;51.568;5.048;2023-01-01T05:01:39;7.30;;;1.40;;
69534;SDS011;56754;51.568;5.048;2023-01-01T05:04:05;7.53;;;1.10;;
69534;SDS011;56754;51.568;5.048;2023-01-01T05:06:30;5.30;;;1.17;;
69534;SDS011;56754;51.568;5.048;2023-01-01T05:08:56;6.18;;;1.27;;
69534;SDS011;56754;51.568;5.048;2023-01-01T05:11:28;7.23;;;1.33;;
69534;SDS011;56754;51.568;5.048;2023-01-01T05:13:55;8.52;;;1.40;;
69534;SDS011;56754;51.568;5.048;2023-01-01T05:16:23;6.82;;;1.33;;
69534;SDS011;56754;51.568;5.048;2023-01-01T05:18:50;6.38;;;1.45;;
69534;SDS011;56754;51.568;5.048;2023-01-01T05:21:17;7.67;;;1.47;;
69534;SDS011;56754;51.568;5.048;2023-01-01T05:23:43;7.35;;;1.10;;
69534;SDS011;56754;51.568;5.048;2023-01-01T05:26:16;7.43;;;1.00;;
69534;SDS011;56754;51.568;5.048;2023-01-01T05:28:46;4.88;;;0.98;;
69534;SDS011;56754;51.568;5.048;2023-01-01T05:31:16;8.38;;;1.40;;
69534;SDS011;56754;51.568;5.048;2023-01-01T05:33:43;7.00;;;1.30;;
69534;SDS011;56754;51.568;5.048;2023-01-01T05:36:13;5.90;;;1.17;;
69534;SDS011;56754;51.568;5.048;2023-01-01T05:38:43;7.13;;;1.17;;
69534;SDS011;56754;51.568;5.048;2023-01-01T05:41:09;6.15;;;1.23;;
69534;SDS011;56754;51.568;5.048;2023-01-01T05:43:36;10.77;;;1.63;;
69534;SDS011;56754;51.568;5.048;2023-01-01T05:46:05;9.43;;;1.50;;
69534;SDS011;56754;51.568;5.048;2023-01-01T05:48:35;7.97;;;1.00;;
69534;SDS011;56754;51.568;5.048;2023-01-01T05:51:03;7.90;;;1.17;;
69534;SDS011;56754;51.568;5.048;2023-01-01T05:53:30;7.65;;;1.30;;
69534;SDS011;56754;51.568;5.048;2023-01-01T05:55:57;4.38;;;1.00;;
69534;SDS011;56754;51.568;5.048;2023-01-01T05:58:22;6.10;;;0.90;;
69534;SDS011;56754;51.568;5.048;2023-01-01T06:00:48;4.50;;;0.80;;
69534;SDS011;56754;51.568;5.048;2023-01-01T06:03:13;5.70;;;0.67;;
69534;SDS011;56754;51.568;5.048;2023-01-01T06:05:38;5.73;;;0.67;;
69534;SDS011;56754;51.568;5.048;2023-01-01T06:08:04;4.13;;;0.60;;
69534;SDS011;56754;51.568;5.048;2023-01-01T06:10:29;7.05;;;0.80;;
69534;SDS011;56754;51.568;5.048;2023-01-01T06:12:55;3.63;;;0.60;;
69534;SDS011;56754;51.568;5.048;2023-01-01T06:15:20;3.93;;;0.60;;
69534;SDS011;56754;51.568;5.048;2023-01-01T06:17:45;4.10;;;0.60;;
69534;SDS011;56754;51.568;5.048;2023-01-01T06:20:10;8.27;;;0.73;;
69534;SDS011;56754;51.568;5.048;2023-01-01T06:22:36;3.87;;;0.60;;
69534;SDS011;56754;51.568;5.048;2023-01-01T06:25:01;4.17;;;0.57;;
69534;SDS011;56754;51.568;5.048;2023-01-01T06:27:26;5.33;;;0.63;;
69534;SDS011;56754;51.568;5.048;2023-01-01T06:29:51;3.57;;;0.63;;
69534;SDS011;56754;51.568;5.048;2023-01-01T06:32:17;3.93;;;0.40;;
69534;SDS011;56754;51.568;5.048;2023-01-01T06:34:42;5.63;;;0.70;;
69534;SDS011;56754;51.568;5.048;2023-01-01T06:37:07;6.33;;;0.60;;
69534;SDS011;56754;51.568;5.048;2023-01-01T06:39:32;5.40;;;0.70;;
69534;SDS011;56754;51.568;5.048;2023-01-01T06:41:58;3.07;;;0.67;;
69534;SDS011;56754;51.568;5.048;2023-01-01T06:44:23;4.73;;;0.67;;
69534;SDS011;56754;51.568;5.048;2023-01-01T06:46:48;4.03;;;0.80;;
69534;SDS011;56754;51.568;5.048;2023-01-01T06:49:13;2.43;;;0.47;;
69534;SDS011;56754;51.568;5.048;2023-01-01T06:51:40;4.23;;;0.50;;
69534;SDS011;56754;51.568;5.048;2023-01-01T06:54:06;4.00;;;0.60;;
69534;SDS011;56754;51.568;5.048;2023-01-01T06:56:32;4.60;;;0.65;;
69534;SDS011;56754;51.568;5.048;2023-01-01T06:58:59;7.70;;;0.90;;
69534;SDS011;56754;51.568;5.048;2023-01-01T07:01:26;6.30;;;0.70;;
69534;SDS011;56754;51.568;5.048;2023-01-01T07:06:19;3.43;;;0.60;;
69534;SDS011;56754;51.568;5.048;2023-01-01T07:08:45;4.80;;;0.60;;
69534;SDS011;56754;51.568;5.048;2023-01-01T07:11:10;4.90;;;0.50;;
69534;SDS011;56754;51.568;5.048;2023-01-01T07:13:36;5.33;;;0.80;;
69534;SDS011;56754;51.568;5.048;2023-01-01T07:16:01;5.82;;;0.85;;
69534;SDS011;56754;51.568;5.048;2023-01-01T07:18:27;5.23;;;0.67;;
69534;SDS011;56754;51.568;5.048;2023-01-01T07:20:53;2.73;;;0.40;;
69534;SDS011;56754;51.568;5.048;2023-01-01T07:23:20;4.00;;;0.60;;
69534;SDS011;56754;51.568;5.048;2023-01-01T07:25:47;4.33;;;0.53;;
69534;SDS011;56754;51.568;5.048;2023-01-01T07:28:13;3.83;;;0.45;;
69534;SDS011;56754;51.568;5.048;2023-01-01T07:30:38;3.87;;;0.47;;
69534;SDS011;56754;51.568;5.048;2023-01-01T07:33:04;3.10;;;0.67;;
69534;SDS011;56754;51.568;5.048;2023-01-01T07:35:29;5.70;;;0.87;;
69534;SDS011;56754;51.568;5.048;2023-01-01T07:37:54;4.97;;;0.93;;
69534;SDS011;56754;51.568;5.048;2023-01-01T07:40:19;4.57;;;0.50;;
69534;SDS011;56754;51.568;5.048;2023-01-01T07:42:45;5.87;;;0.60;;
69534;SDS011;56754;51.568;5.048;2023-01-01T07:45:11;4.53;;;0.70;;
69534;SDS011;56754;51.568;5.048;2023-01-01T07:47:36;5.57;;;0.52;;
69534;SDS011;56754;51.568;5.048;2023-01-01T07:50:02;4.88;;;0.85;;
69534;SDS011;56754;51.568;5.048;2023-01-01T07:52:29;4.20;;;0.90;;
69534;SDS011;56754;51.568;5.048;2023-01-01T07:54:54;5.67;;;0.77;;
69534;SDS011;56754;51.568;5.048;2023-01-01T07:57:19;5.73;;;0.70;;
69534;SDS011;56754;51.568;5.048;2023-01-01T07:59:44;4.67;;;0.60;;
69534;SDS011;56754;51.568;5.048;2023-01-01T08:02:10;4.63;;;0.60;;
69534;SDS011;56754;51.568;5.048;2023-01-01T08:04:36;5.05;;;0.63;;
69534;SDS011;56754;51.568;5.048;2023-01-01T08:07:02;5.93;;;0.43;;
69534;SDS011;56754;51.568;5.048;2023-01-01T08:09:27;4.17;;;0.67;;
69534;SDS011;56754;51.568;5.048;2023-01-01T08:11:52;4.83;;;0.70;;
69534;SDS011;56754;51.568;5.048;2023-01-01T08:14:18;4.73;;;0.77;;
69534;SDS011;56754;51.568;5.048;2023-01-01T08:16:43;5.38;;;0.70;;
69534;SDS011;56754;51.568;5.048;2023-01-01T08:19:08;5.87;;;0.60;;
69534;SDS011;56754;51.568;5.048;2023-01-01T08:21:33;8.03;;;0.70;;
69534;SDS011;56754;51.568;5.048;2023-01-01T08:23:59;5.57;;;0.80;;
69534;SDS011;56754;51.568;5.048;2023-01-01T08:26:28;4.90;;;0.70;;
69534;SDS011;56754;51.568;5.048;2023-01-01T08:28:55;5.03;;;0.70;;
69534;SDS011;56754;51.568;5.048;2023-01-01T08:31:21;4.03;;;0.73;;
69534;SDS011;56754;51.568;5.048;2023-01-01T08:33:47;5.80;;;0.60;;
69534;SDS011;56754;51.568;5.048;2023-01-01T08:36:12;4.30;;;0.57;;
69534;SDS011;56754;51.568;5.048;2023-01-01T08:38:38;5.63;;;0.55;;
69534;SDS011;56754;51.568;5.048;2023-01-01T08:41:03;4.70;;;0.70;;
69534;SDS011;56754;51.568;5.048;2023-01-01T08:43:29;4.17;;;0.57;;
69534;SDS011;56754;51.568;5.048;2023-01-01T08:45:54;5.43;;;0.60;;
69534;SDS011;56754;51.568;5.048;2023-01-01T08:48:19;7.97;;;1.13;;
69534;SDS011;56754;51.568;5.048;2023-01-01T08:50:51;5.13;;;0.63;;
69534;SDS011;56754;51.568;5.048;2023-01-01T08:53:19;4.43;;;0.85;;
69534;SDS011;56754;51.568;5.048;2023-01-01T08:55:44;4.00;;;0.70;;
69534;SDS011;56754;51.568;5.048;2023-01-01T08:58:19;4.33;;;0.60;;
69534;SDS011;56754;51.568;5.048;2023-01-01T09:00:44;6.30;;;0.70;;
69534;SDS011;56754;51.568;5.048;2023-01-01T09:03:10;6.43;;;0.80;;
69534;SDS011;56754;51.568;5.048;2023-01-01T09:05:35;4.73;;;0.60;;
69534;SDS011;56754;51.568;5.048;2023-01-01T09:08:00;6.30;;;0.73;;
69534;SDS011;56754;51.568;5.048;2023-01-01T09:10:25;6.93;;;0.80;;
69534;SDS011;56754;51.568;5.048;2023-01-01T09:12:51;6.27;;;0.93;;
69534;SDS011;56754;51.568;5.048;2023-01-01T09:15:16;5.10;;;0.80;;
69534;SDS011;56754;51.568;5.048;2023-01-01T09:17:41;4.47;;;0.60;;
69534;SDS011;56754;51.568;5.048;2023-01-01T09:20:07;4.63;;;0.60;;
69534;SDS011;56754;51.568;5.048;2023-01-01T09:22:32;5.80;;;0.98;;
69534;SDS011;56754;51.568;5.048;2023-01-01T09:24:58;7.50;;;0.70;;
69534;SDS011;56754;51.568;5.048;2023-01-01T09:27:23;4.87;;;0.83;;
69534;SDS011;56754;51.568;5.048;2023-01-01T09:29:48;3.55;;;0.70;;
69534;SDS011;56754;51.568;5.048;2023-01-01T09:32:14;3.43;;;0.57;;
69534;SDS011;56754;51.568;5.048;2023-01-01T09:34:39;6.50;;;0.87;;
69534;SDS011;56754;51.568;5.048;2023-01-01T09:37:04;6.47;;;0.90;;
69534;SDS011;56754;51.568;5.048;2023-01-01T09:39:30;3.60;;;0.40;;
69534;SDS011;56754;51.568;5.048;2023-01-01T09:42:04;5.00;;;0.83;;
69534;SDS011;56754;51.568;5.048;2023-01-01T09:47:39;5.18;;;0.80;;
69534;SDS011;56754;51.568;5.048;2023-01-01T09:50:10;4.97;;;0.63;;
69534;SDS011;56754;51.568;5.048;2023-01-01T09:52:49;4.22;;;0.80;;
69534;SDS011;56754;51.568;5.048;2023-01-01T09:55:20;6.03;;;0.80;;
69534;SDS011;56754;51.568;5.048;2023-01-01T09:58:06;3.83;;;0.63;;
69534;SDS011;56754;51.568;5.048;2023-01-01T10:00:34;6.00;;;0.88;;
69534;SDS011;56754;51.568;5.048;2023-01-01T10:03:24;4.03;;;0.60;;
69534;SDS011;56754;51.568;5.048;2023-01-01T10:08:46;3.27;;;0.53;;
69534;SDS011;56754;51.568;5.048;2023-01-01T10:11:23;4.68;;;0.90;;
69534;SDS011;56754;51.568;5.048;2023-01-01T10:13:56;4.57;;;0.63;;
69534;SDS011;56754;51.568;5.048;2023-01-01T10:18:55;4.53;;;0.90;;
69534;SDS011;56754;51.568;5.048;2023-01-01T10:21:25;5.87;;;1.17;;
69534;SDS011;56754;51.568;5.048;2023-01-01T10:23:59;5.95;;;1.13;;
69534;SDS011;56754;51.568;5.048;2023-01-01T10:26:29;7.47;;;1.77;;
69534;SDS011;56754;51.568;5.048;2023-01-01T10:29:03;5.78;;;1.20;;
69534;SDS011;56754;51.568;5.048;2023-01-01T10:31:37;7.03;;;1.45;;
69534;SDS011;56754;51.568;5.048;2023-01-01T10:34:12;3.77;;;1.20;;
69534;SDS011;56754;51.568;5.048;2023-01-01T10:36:40;8.60;;;1.75;;
69534;SDS011;56754;51.568;5.048;2023-01-01T10:39:08;6.55;;;1.73;;
69534;SDS011;56754;51.568;5.048;2023-01-01T10:41:40;5.75;;;1.48;;
69534;SDS011;56754;51.568;5.048;2023-01-01T10:44:06;5.70;;;1.80;;
69534;SDS011;56754;51.568;5.048;2023-01-01T10:46:31;9.80;;;2.30;;
69534;SDS011;56754;51.568;5.048;2023-01-01T10:49:04;6.22;;;1.50;;
69534;SDS011;56754;51.568;5.048;2023-01-01T10:51:32;6.72;;;1.60;;
69534;SDS011;56754;51.568;5.048;2023-01-01T10:54:01;6.30;;;1.40;;
69534;SDS011;56754;51.568;5.048;2023-01-01T10:56:27;6.20;;;1.50;;
69534;SDS011;56754;51.568;5.048;2023-01-01T10:59:03;10.03;;;2.30;;
69534;SDS011;56754;51.568;5.048;2023-01-01T11:01:29;9.03;;;1.60;;
69534;SDS011;56754;51.568;5.048;2023-01-01T11:04:01;6.13;;;1.47;;
69534;SDS011;56754;51.568;5.048;2023-01-01T11:06:42;8.25;;;1.73;;
69534;SDS011;56754;51.568;5.048;2023-01-01T11:09:19;5.05;;;1.20;;
69534;SDS011;56754;51.568;5.048;2023-01-01T11:11:47;8.00;;;1.65;;
69534;SDS011;56754;51.568;5.048;2023-01-01T11:16:50;9.47;;;1.80;;
69534;SDS011;56754;51.568;5.048;2023-01-01T11:19:22;5.88;;;1.30;;
69534;SDS011;56754;51.568;5.048;2023-01-01T11:21:52;4.63;;;1.10;;
69534;SDS011;56754;51.568;5.048;2023-01-01T11:24:24;5.77;;;1.40;;
69534;SDS011;56754;51.568;5.048;2023-01-01T11:26:51;9.80;;;2.22;;
69534;SDS011;56754;51.568;5.048;2023-01-01T11:29:20;4.82;;;1.00;;
69534;SDS011;56754;51.568;5.048;2023-01-01T11:31:49;7.65;;;1.30;;
69534;SDS011;56754;51.568;5.048;2023-01-01T11:34:35;3.67;;;0.87;;
69534;SDS011;56754;51.568;5.048;2023-01-01T11:39:52;7.18;;;1.33;;
69534;SDS011;56754;51.568;5.048;2023-01-01T11:42:20;6.57;;;1.45;;
69534;SDS011;56754;51.568;5.048;2023-01-01T11:44:57;4.85;;;0.80;;
69534;SDS011;56754;51.568;5.048;2023-01-01T11:47:29;5.87;;;0.90;;
69534;SDS011;56754;51.568;5.048;2023-01-01T11:50:05;6.28;;;1.08;;
69534;SDS011;56754;51.568;5.048;2023-01-01T11:52:44;11.68;;;1.75;;
69534;SDS011;56754;51.568;5.048;2023-01-01T11:55:19;7.70;;;1.25;;
69534;SDS011;56754;51.568;5.048;2023-01-01T12:00:19;5.00;;;1.10;;
69534;SDS011;56754;51.568;5.048;2023-01-01T12:02:55;4.60;;;1.08;;
69534;SDS011;56754;51.568;5.048;2023-01-01T12:05:25;8.30;;;1.20;;
69534;SDS011;56754;51.568;5.048;2023-01-01T12:08:08;6.03;;;0.93;;
69534;SDS011;56754;51.568;5.048;2023-01-01T12:10:43;6.10;;;1.10;;
69534;SDS011;56754;51.568;5.048;2023-01-01T12:13:17;5.18;;;0.93;;
69534;SDS011;56754;51.568;5.048;2023-01-01T12:15:50;6.65;;;0.90;;
69534;SDS011;56754;51.568;5.048;2023-01-01T12:21:09;3.65;;;0.80;;
69534;SDS011;56754;51.568;5.048;2023-01-01T12:23:39;3.92;;;1.00;;
69534;SDS011;56754;51.568;5.048;2023-01-01T12:26:17;8.33;;;0.90;;
69534;SDS011;56754;51.568;5.048;2023-01-01T12:29:01;4.97;;;0.80;;
69534;SDS011;56754;51.568;5.048;2023-01-01T12:32:06;5.07;;;1.00;;
69534;SDS011;56754;51.568;5.048;2023-01-01T12:34:35;6.30;;;0.90;;
69534;SDS011;56754;51.568;5.048;2023-01-01T12:51:11;5.93;;;1.03;;
69534;SDS011;56754;51.568;5.048;2023-01-01T12:59:31;5.40;;;1.10;;
69534;SDS011;56754;51.568;5.048;2023-01-01T13:02:01;4.38;;;0.73;;
69534;SDS011;56754;51.568;5.048;2023-01-01T13:04:36;6.87;;;1.10;;
69534;SDS011;56754;51.568;5.048;2023-01-01T13:07:03;8.43;;;1.42;;
69534;SDS011;56754;51.568;5.048;2023-01-01T13:09:36;3.55;;;0.88;;
69534;SDS011;56754;51.568;5.048;2023-01-01T13:12:05;4.88;;;0.95;;
69534;SDS011;56754;51.568;5.048;2023-01-01T13:14:52;4.10;;;0.90;;
69534;SDS011;56754;51.568;5.048;2023-01-01T13:17:21;4.20;;;1.00;;
69534;SDS011;56754;51.568;5.048;2023-01-01T13:19:49;4.18;;;1.02;;
69534;SDS011;56754;51.568;5.048;2023-01-01T13:22:37;5.57;;;0.90;;
69534;SDS011;56754;51.568;5.048;2023-01-01T13:38:43;5.63;;;0.90;;
69534;SDS011;56754;51.568;5.048;2023-01-01T13:41:38;4.32;;;0.80;;
69534;SDS011;56754;51.568;5.048;2023-01-01T13:46:31;4.90;;;1.00;;
69534;SDS011;56754;51.568;5.048;2023-01-01T13:57:35;3.05;;;0.82;;
69534;SDS011;56754;51.568;5.048;2023-01-01T14:00:20;5.50;;;0.80;;
69534;SDS011;56754;51.568;5.048;2023-01-01T14:02:48;5.68;;;0.98;;
69534;SDS011;56754;51.568;5.048;2023-01-01T14:05:24;6.55;;;1.08;;
69534;SDS011;56754;51.568;5.048;2023-01-01T14:07:55;4.25;;;1.05;;
69534;SDS011;56754;51.568;5.048;2023-01-01T14:12:49;4.78;;;0.80;;
69534;SDS011;56754;51.568;5.048;2023-01-01T14:15:22;4.60;;;0.93;;
69534;SDS011;56754;51.568;5.048;2023-01-01T14:17:51;5.10;;;1.10;;
69534;SDS011;56754;51.568;5.048;2023-01-01T14:20:18;4.00;;;1.17;;
69534;SDS011;56754;51.568;5.048;2023-01-01T14:22:46;6.28;;;1.10;;
69534;SDS011;56754;51.568;5.048;2023-01-01T14:25:15;3.88;;;0.95;;
69534;SDS011;56754;51.568;5.048;2023-01-01T14:27:44;8.07;;;1.33;;
69534;SDS011;56754;51.568;5.048;2023-01-01T14:30:16;4.97;;;1.13;;
69534;SDS011;56754;51.568;5.048;2023-01-01T14:32:42;8.18;;;0.93;;
69534;SDS011;56754;51.568;5.048;2023-01-01T14:35:12;5.30;;;1.10;;
69534;SDS011;56754;51.568;5.048;2023-01-01T14:37:40;5.47;;;0.95;;
69534;SDS011;56754;51.568;5.048;2023-01-01T14:40:07;3.85;;;0.98;;
69534;SDS011;56754;51.568;5.048;2023-01-01T14:42:33;4.25;;;0.85;;
69534;SDS011;56754;51.568;5.048;2023-01-01T14:45:00;5.77;;;1.00;;
69534;SDS011;56754;51.568;5.048;2023-01-01T14:47:31;3.33;;;0.95;;
69534;SDS011;56754;51.568;5.048;2023-01-01T14:52:33;5.85;;;0.93;;
69534;SDS011;56754;51.568;5.048;2023-01-01T14:54:59;7.90;;;1.40;;
69534;SDS011;56754;51.568;5.048;2023-01-01T14:57:26;5.15;;;1.00;;
69534;SDS011;56754;51.568;5.048;2023-01-01T14:59:55;4.35;;;0.82;;
69534;SDS011;56754;51.568;5.048;2023-01-01T15:02:21;7.00;;;1.07;;
69534;SDS011;56754;51.568;5.048;2023-01-01T15:04:49;5.15;;;0.98;;
69534;SDS011;56754;51.568;5.048;2023-01-01T15:07:21;5.05;;;1.00;;
69534;SDS011;56754;51.568;5.048;2023-01-01T15:09:47;6.70;;;1.47;;
69534;SDS011;56754;51.568;5.048;2023-01-01T15:12:13;9.05;;;1.40;;
69534;SDS011;56754;51.568;5.048;2023-01-01T15:14:41;6.45;;;1.65;;
69534;SDS011;56754;51.568;5.048;2023-01-01T15:17:07;5.68;;;1.23;;
69534;SDS011;56754;51.568;5.048;2023-01-01T15:19:34;5.40;;;1.13;;
69534;SDS011;56754;51.568;5.048;2023-01-01T15:22:06;7.72;;;1.75;;
69534;SDS011;56754;51.568;5.048;2023-01-01T15:24:35;6.43;;;1.40;;
69534;SDS011;56754;51.568;5.048;2023-01-01T15:27:05;6.80;;;1.23;;
69534;SDS011;56754;51.568;5.048;2023-01-01T15:29:32;6.25;;;1.15;;
69534;SDS011;56754;51.568;5.048;2023-01-01T15:32:09;5.87;;;1.00;;
69534;SDS011;56754;51.568;5.048;2023-01-01T15:34:42;5.15;;;1.40;;
69534;SDS011;56754;51.568;5.048;2023-01-01T15:39:57;5.90;;;1.35;;
69534;SDS011;56754;51.568;5.048;2023-01-01T15:42:37;4.10;;;1.02;;
69534;SDS011;56754;51.568;5.048;2023-01-01T15:47:54;7.75;;;1.33;;
69534;SDS011;56754;51.568;5.048;2023-01-01T15:50:25;6.15;;;1.10;;
69534;SDS011;56754;51.568;5.048;2023-01-01T15:52:59;7.03;;;1.20;;
69534;SDS011;56754;51.568;5.048;2023-01-01T15:55:28;7.97;;;1.60;;
69534;SDS011;56754;51.568;5.048;2023-01-01T15:57:57;4.30;;;1.03;;
69534;SDS011;56754;51.568;5.048;2023-01-01T16:00:26;5.40;;;1.20;;
69534;SDS011;56754;51.568;5.048;2023-01-01T16:03:01;5.15;;;1.27;;
69534;SDS011;56754;51.568;5.048;2023-01-01T16:05:45;7.13;;;1.50;;
69534;SDS011;56754;51.568;5.048;2023-01-01T16:08:11;6.00;;;1.15;;
69534;SDS011;56754;51.568;5.048;2023-01-01T16:10:36;7.13;;;1.20;;
69534;SDS011;56754;51.568;5.048;2023-01-01T16:13:02;7.20;;;1.50;;
69534;SDS011;56754;51.568;5.048;2023-01-01T16:15:27;5.70;;;1.10;;
69534;SDS011;56754;51.568;5.048;2023-01-01T16:17:52;5.73;;;1.20;;
69534;SDS011;56754;51.568;5.048;2023-01-01T16:20:18;6.13;;;1.47;;
69534;SDS011;56754;51.568;5.048;2023-01-01T16:22:45;7.32;;;1.40;;
69534;SDS011;56754;51.568;5.048;2023-01-01T16:25:20;4.93;;;1.40;;
69534;SDS011;56754;51.568;5.048;2023-01-01T16:27:46;4.05;;;1.10;;
69534;SDS011;56754;51.568;5.048;2023-01-01T16:30:12;4.43;;;1.10;;
69534;SDS011;56754;51.568;5.048;2023-01-01T16:32:39;4.72;;;1.08;;
69534;SDS011;56754;51.568;5.048;2023-01-01T16:35:05;4.87;;;1.30;;
69534;SDS011;56754;51.568;5.048;2023-01-01T16:37:31;5.50;;;1.40;;
69534;SDS011;56754;51.568;5.048;2023-01-01T16:39:57;6.03;;;1.50;;
69534;SDS011;56754;51.568;5.048;2023-01-01T16:42:22;4.40;;;1.07;;
69534;SDS011;56754;51.568;5.048;2023-01-01T16:44:48;4.90;;;1.10;;
69534;SDS011;56754;51.568;5.048;2023-01-01T16:47:13;5.60;;;1.38;;
69534;SDS011;56754;51.568;5.048;2023-01-01T16:49:39;5.00;;;1.20;;
69534;SDS011;56754;51.568;5.048;2023-01-01T16:52:04;7.03;;;1.53;;
69534;SDS011;56754;51.568;5.048;2023-01-01T16:54:29;6.47;;;1.50;;
69534;SDS011;56754;51.568;5.048;2023-01-01T16:56:55;6.17;;;1.50;;